Time;durP1;ratioP1;P1;durP2;ratioP2;P2;SDS_P1;SDS_P2;PMS_P1;PMS_P2;Temp;Humidity;BMP_temperature;BMP_pressure;BME280_temperature;BME280_humidity;BME280_pressure;Samples;Min_cycle;Max_cycle;Signal;HPM_P1;HPM_P2
2023/01/28 00:01:12;;;;;;;11.40;8.57;;;2.70;99.90;;;;;;5042843;28;20084;-82
2023/01/28 00:03:38;;;;;;;11.93;9.15;;;2.70;99.90;;;;;;5084496;28;20036;-82
2023/01/28 00:06:10;;;;;;;10.93;8.75;;;3.80;99.90;;;;;;5075638;28;20044;-83
2023/01/28 00:08:36;;;;;;;12.10;8.80;;;2.70;99.90;;;;;;5075404;28;20078;-83
2023/01/28 00:11:04;;;;;;;10.25;8.60;;;2.70;99.90;;;;;;5077298;28;20464;-83
2023/01/28 00:13:30;;;;;;;10.80;8.85;;;2.70;99.90;;;;;;5094374;28;20032;-83
2023/01/28 00:15:58;;;;;;;10.10;8.32;;;3.80;99.90;;;;;;5093240;28;20068;-82
2023/01/28 00:18:25;;;;;;;11.85;8.63;;;3.70;99.90;;;;;;5092652;28;20036;-82
2023/01/28 00:20:59;;;;;;;10.73;8.50;;;2.60;99.90;;;;;;5094718;28;20040;-82
2023/01/28 00:23:26;;;;;;;10.70;8.82;;;3.30;99.90;;;;;;5070778;28;20040;-82
2023/01/28 00:25:53;;;;;;;10.55;9.13;;;2.60;99.90;;;;;;5077497;28;20047;-82
2023/01/28 00:28:20;;;;;;;10.13;7.80;;;2.60;99.90;;;;;;5087755;28;20054;-83
2023/01/28 00:30:45;;;;;;;11.15;8.30;;;2.60;99.90;;;;;;5077261;28;20541;-83
2023/01/28 00:33:12;;;;;;;10.70;8.85;;;2.80;99.90;;;;;;5075598;28;20051;-82
2023/01/28 00:35:37;;;;;;;9.82;7.78;;;2.50;99.90;;;;;;5080190;28;20103;-82
2023/01/28 00:38:03;;;;;;;9.02;8.02;;;2.50;99.90;;;;;;5073953;28;20043;-81
2023/01/28 00:40:30;;;;;;;10.40;7.80;;;3.20;99.90;;;;;;5109977;28;20040;-82
2023/01/28 00:42:56;;;;;;;9.30;8.27;;;4.10;99.90;;;;;;5088391;28;20048;-82
2023/01/28 00:45:22;;;;;;;9.32;7.65;;;2.50;99.90;;;;;;5044364;28;20101;-82
2023/01/28 00:47:47;;;;;;;9.60;8.35;;;2.50;99.90;;;;;;5076373;28;20062;-83
2023/01/28 00:50:14;;;;;;;9.77;8.15;;;2.50;99.90;;;;;;5081908;28;20054;-83
2023/01/28 00:52:39;;;;;;;9.95;8.57;;;2.50;99.90;;;;;;5057954;28;20089;-83
2023/01/28 00:55:06;;;;;;;8.05;7.25;;;2.60;99.90;;;;;;5076152;28;20048;-82
2023/01/28 00:57:32;;;;;;;8.27;7.18;;;2.50;99.90;;;;;;5074606;28;20487;-84
2023/01/28 00:59:59;;;;;;;9.45;7.70;;;3.20;99.90;;;;;;5074523;28;20047;-82
2023/01/28 01:02:25;;;;;;;8.98;8.07;;;2.50;99.90;;;;;;5075074;28;20089;-84
2023/01/28 01:04:57;;;;;;;8.32;7.22;;;2.50;99.90;;;;;;5091222;28;20054;-81
2023/01/28 01:07:31;;;;;;;8.63;7.70;;;2.60;99.90;;;;;;5074429;28;20040;-82
2023/01/28 01:10:00;;;;;;;8.60;7.57;;;3.20;99.90;;;;;;5082824;28;20499;-83
2023/01/28 01:12:27;;;;;;;9.57;7.85;;;2.50;99.90;;;;;;5074537;28;20040;-82
2023/01/28 01:14:52;;;;;;;8.80;7.63;;;2.60;99.90;;;;;;5074203;28;20046;-83
2023/01/28 01:17:20;;;;;;;8.90;8.00;;;2.50;99.90;;;;;;5066482;28;20036;-83
2023/01/28 01:19:45;;;;;;;9.02;7.53;;;2.50;99.90;;;;;;5074297;28;20047;-83
2023/01/28 01:22:11;;;;;;;9.32;8.07;;;3.90;99.90;;;;;;5075782;28;20039;-83
2023/01/28 01:24:37;;;;;;;9.35;8.35;;;2.50;99.90;;;;;;5059380;28;20047;-82
2023/01/28 01:27:04;;;;;;;9.35;7.38;;;3.30;99.90;;;;;;5084548;28;20064;-83
2023/01/28 01:29:32;;;;;;;9.93;7.65;;;3.90;99.90;;;;;;5091902;28;20043;-83
2023/01/28 01:31:58;;;;;;;9.57;7.97;;;2.40;99.90;;;;;;5076433;28;20055;-83
2023/01/28 01:34:24;;;;;;;10.57;7.72;;;2.40;99.90;;;;;;5057571;28;20047;-83
2023/01/28 01:36:50;;;;;;;10.00;7.65;;;2.70;99.90;;;;;;5059063;28;20040;-82
2023/01/28 01:39:16;;;;;;;12.15;8.07;;;2.40;99.90;;;;;;5075144;28;20044;-82
2023/01/28 01:41:42;;;;;;;9.60;7.43;;;2.80;99.90;;;;;;5042324;28;20395;-83
2023/01/28 01:44:45;;;;;;;10.30;8.05;;;2.40;99.90;;;;;;5041361;28;20514;-83
2023/01/28 01:47:11;;;;;;;8.32;7.40;;;2.40;99.90;;;;;;5090671;28;20119;-83
2023/01/28 01:49:37;;;;;;;9.38;8.13;;;2.60;99.90;;;;;;5058233;28;20047;-83
2023/01/28 01:52:11;;;;;;;9.55;8.02;;;2.40;99.90;;;;;;5041782;28;20123;-83
2023/01/28 01:54:40;;;;;;;9.38;7.68;;;2.40;99.90;;;;;;5074444;28;20471;-83
2023/01/28 01:57:09;;;;;;;9.45;7.80;;;3.20;99.90;;;;;;5091517;28;20084;-83
2023/01/28 01:59:36;;;;;;;12.68;7.47;;;3.10;99.90;;;;;;5073980;28;20545;-83
2023/01/28 02:02:06;;;;;;;10.60;7.65;;;2.30;99.90;;;;;;5073692;28;20047;-83
2023/01/28 02:04:37;;;;;;;10.43;8.18;;;3.80;99.90;;;;;;5091313;28;20052;-83
2023/01/28 02:07:04;;;;;;;9.77;7.57;;;2.20;99.90;;;;;;5090732;28;20172;-83
2023/01/28 02:09:34;;;;;;;9.88;8.15;;;2.20;99.90;;;;;;5074168;28;20040;-83
2023/01/28 02:12:06;;;;;;;11.23;8.02;;;3.00;99.90;;;;;;5074215;28;20127;-83
2023/01/28 02:14:36;;;;;;;11.32;7.55;;;2.20;99.90;;;;;;5074146;28;20399;-83
2023/01/28 02:17:02;;;;;;;11.05;8.38;;;2.20;99.90;;;;;;5090269;28;20460;-83
2023/01/28 02:19:47;;;;;;;8.95;7.57;;;2.70;99.90;;;;;;5074194;28;20042;-83
2023/01/28 02:22:44;;;;;;;10.07;8.13;;;2.20;99.90;;;;;;5073059;28;20032;-82
2023/01/28 02:25:46;;;;;;;10.80;8.52;;;2.20;99.90;;;;;;5078181;28;20373;-83
2023/01/28 02:28:21;;;;;;;9.52;7.90;;;2.20;99.90;;;;;;5073755;28;20076;-83
2023/01/28 02:31:18;;;;;;;10.55;8.32;;;2.10;99.90;;;;;;5089712;28;20036;-83
2023/01/28 02:34:14;;;;;;;11.38;8.82;;;2.20;99.90;;;;;;5086394;28;20078;-83
2023/01/28 02:37:18;;;;;;;11.60;8.85;;;3.00;99.90;;;;;;5087741;28;20044;-83
2023/01/28 02:39:53;;;;;;;11.40;9.27;;;2.10;99.90;;;;;;5067680;28;20048;-81
2023/01/28 02:42:27;;;;;;;10.43;9.10;;;3.10;99.90;;;;;;5076070;28;20046;-81
2023/01/28 02:44:52;;;;;;;11.15;8.77;;;2.10;99.90;;;;;;5085050;28;20044;-84
2023/01/28 02:50:23;;;;;;;11.57;8.57;;;2.00;99.90;;;;;;5064230;28;20062;-82
2023/01/28 02:55:43;;;;;;;10.73;8.23;;;3.10;99.90;;;;;;5082354;28;20144;-82
2023/01/28 02:58:45;;;;;;;12.02;9.00;;;2.50;99.90;;;;;;5075660;28;20028;-82
2023/01/28 03:01:34;;;;;;;12.38;9.68;;;2.00;99.90;;;;;;5075137;28;21091;-82
2023/01/28 03:04:25;;;;;;;10.43;8.65;;;2.10;99.90;;;;;;5082262;28;20052;-82
2023/01/28 03:06:56;;;;;;;10.18;8.70;;;2.00;99.90;;;;;;5067616;28;20070;-82
2023/01/28 03:09:25;;;;;;;12.55;9.77;;;2.20;99.90;;;;;;5079568;28;20130;-82
2023/01/28 03:38:17;;;;;;;11.55;9.18;;;2.00;99.90;;;;;;5107909;28;20044;-84
2023/01/28 03:40:59;;;;;;;11.10;9.00;;;2.00;99.90;;;;;;5069162;28;20036;-82
2023/01/28 03:43:25;;;;;;;16.33;10.40;;;3.00;99.90;;;;;;5066540;28;20055;-82
2023/01/28 03:45:51;;;;;;;12.25;9.85;;;2.80;99.90;;;;;;5063264;28;20097;-82
2023/01/28 03:48:25;;;;;;;11.10;9.18;;;2.80;99.90;;;;;;5049703;28;20130;-82
2023/01/28 03:50:52;;;;;;;12.38;10.20;;;3.30;99.90;;;;;;5061618;28;20776;-82
2023/01/28 03:53:18;;;;;;;12.68;9.85;;;2.70;99.90;;;;;;5050390;28;20051;-82
2023/01/28 03:55:46;;;;;;;12.95;9.98;;;2.40;99.90;;;;;;5072698;28;20039;-83
2023/01/28 03:58:13;;;;;;;13.02;10.52;;;2.00;99.90;;;;;;5056848;28;20445;-83
2023/01/28 04:00:41;;;;;;;13.23;10.55;;;2.00;99.90;;;;;;5074513;28;20123;-82
2023/01/28 04:03:15;;;;;;;12.85;10.25;;;2.00;99.90;;;;;;5073886;28;20047;-82
2023/01/28 04:05:42;;;;;;;12.80;9.85;;;3.50;99.90;;;;;;5074220;28;20081;-82
2023/01/28 04:08:08;;;;;;;12.73;11.07;;;3.50;99.90;;;;;;5074159;28;20047;-81
2023/01/28 04:10:34;;;;;;;12.80;10.40;;;2.00;99.90;;;;;;5072588;28;20040;-82
2023/01/28 04:12:59;;;;;;;13.52;10.55;;;1.90;99.90;;;;;;5056444;28;20055;-82
2023/01/28 04:15:25;;;;;;;14.55;10.43;;;2.00;99.90;;;;;;5073375;28;20040;-82
2023/01/28 04:17:51;;;;;;;13.07;10.77;;;3.50;99.90;;;;;;5057031;28;20040;-82
2023/01/28 04:20:17;;;;;;;11.57;9.52;;;2.50;99.90;;;;;;5073782;28;20040;-82
2023/01/28 04:22:42;;;;;;;16.02;10.63;;;2.00;99.90;;;;;;5074404;28;20043;-82
2023/01/28 04:25:09;;;;;;;13.50;10.65;;;2.80;99.90;;;;;;5056839;28;20476;-81
2023/01/28 04:27:34;;;;;;;12.27;10.05;;;3.70;99.90;;;;;;5090001;28;20135;-82
2023/01/28 04:30:00;;;;;;;13.40;10.30;;;2.60;99.90;;;;;;5056449;28;20552;-82
2023/01/28 04:32:26;;;;;;;12.05;10.05;;;1.90;99.90;;;;;;5073222;28;20052;-83
2023/01/28 04:34:51;;;;;;;11.57;9.57;;;2.80;99.90;;;;;;5039799;28;20450;-82
2023/01/28 04:37:17;;;;;;;13.10;10.23;;;1.90;99.90;;;;;;5049163;28;20369;-83
2023/01/28 04:39:43;;;;;;;12.85;10.05;;;1.90;99.90;;;;;;5073597;28;20044;-82
2023/01/28 04:42:09;;;;;;;12.40;10.30;;;1.90;99.90;;;;;;5042211;28;20039;-83
2023/01/28 04:44:34;;;;;;;13.18;10.30;;;1.90;99.90;;;;;;5057515;28;20075;-83
2023/01/28 04:47:00;;;;;;;11.82;9.50;;;1.90;99.90;;;;;;5074140;28;20483;-83
2023/01/28 04:49:25;;;;;;;12.82;9.90;;;1.90;99.90;;;;;;5074171;28;20437;-83
2023/01/28 04:51:51;;;;;;;12.52;9.88;;;3.20;99.90;;;;;;5073349;28;20047;-83
2023/01/28 04:54:17;;;;;;;14.40;10.18;;;3.60;99.90;;;;;;5056775;28;20555;-83
2023/01/28 04:56:42;;;;;;;13.13;10.65;;;3.30;99.90;;;;;;5056986;28;20047;-83
2023/01/28 04:59:08;;;;;;;12.23;9.90;;;3.10;99.90;;;;;;5056702;28;20072;-83
2023/01/28 05:01:34;;;;;;;13.77;10.63;;;1.80;99.90;;;;;;5039448;28;20044;-83
2023/01/28 05:04:04;;;;;;;13.80;10.43;;;1.80;99.90;;;;;;5074249;28;20060;-82
2023/01/28 05:06:30;;;;;;;13.82;10.30;;;1.80;99.90;;;;;;5080802;28;20044;-82
2023/01/28 05:08:56;;;;;;;14.50;10.48;;;1.80;99.90;;;;;;5078434;28;20118;-83
2023/01/28 05:11:23;;;;;;;12.73;10.27;;;3.10;99.90;;;;;;5073238;28;20518;-83
2023/01/28 05:13:49;;;;;;;12.43;9.82;;;3.50;99.90;;;;;;5057711;28;20036;-83
2023/01/28 05:16:14;;;;;;;14.45;11.07;;;3.40;99.90;;;;;;5073263;28;20032;-83
2023/01/28 05:18:40;;;;;;;13.57;10.20;;;2.60;99.90;;;;;;5054867;28;20444;-82
2023/01/28 05:21:06;;;;;;;14.13;10.65;;;1.80;99.90;;;;;;5056508;28;20094;-83
2023/01/28 05:23:32;;;;;;;12.98;10.57;;;1.90;99.90;;;;;;5072189;28;20036;-82
2023/01/28 05:25:57;;;;;;;13.93;10.38;;;1.80;99.90;;;;;;5054849;28;20130;-83
2023/01/28 05:28:23;;;;;;;13.48;10.32;;;1.80;99.90;;;;;;5055875;28;20032;-83
2023/01/28 05:30:49;;;;;;;12.63;10.18;;;2.30;99.90;;;;;;5072811;28;20092;-83
2023/01/28 05:33:15;;;;;;;12.27;9.68;;;3.80;99.90;;;;;;5072298;28;20055;-83
2023/01/28 05:35:42;;;;;;;14.43;9.73;;;1.90;99.90;;;;;;5055866;28;20044;-83
2023/01/28 05:38:08;;;;;;;11.65;9.25;;;3.40;99.90;;;;;;5071770;28;20971;-83
2023/01/28 05:40:34;;;;;;;12.23;9.05;;;1.90;99.90;;;;;;5071811;28;20530;-83
2023/01/28 05:42:59;;;;;;;13.20;10.13;;;3.30;99.90;;;;;;5072904;28;20028;-82
2023/01/28 05:45:25;;;;;;;12.60;10.00;;;1.80;99.90;;;;;;5056471;28;20074;-83
2023/01/28 05:47:51;;;;;;;13.38;9.85;;;1.90;99.90;;;;;;5072434;28;20040;-83
2023/01/28 05:50:17;;;;;;;13.07;10.15;;;1.80;99.90;;;;;;5055820;28;20085;-83
2023/01/28 05:52:43;;;;;;;12.98;10.25;;;2.50;99.90;;;;;;5055602;28;20387;-83
2023/01/28 05:55:09;;;;;;;13.20;10.45;;;3.10;99.90;;;;;;5072233;28;20028;-84
2023/01/28 05:57:35;;;;;;;13.57;10.40;;;3.50;99.90;;;;;;5089244;28;20036;-83
2023/01/28 06:00:01;;;;;;;12.80;9.90;;;1.80;99.90;;;;;;5055287;28;20064;-83
2023/01/28 06:02:27;;;;;;;16.27;11.25;;;1.80;99.90;;;;;;5071763;28;20136;-82
2023/01/28 06:04:53;;;;;;;12.15;9.57;;;2.90;99.90;;;;;;5072685;28;20036;-83
2023/01/28 06:07:19;;;;;;;13.35;9.90;;;1.80;99.90;;;;;;5072872;28;20042;-82
2023/01/28 06:09:46;;;;;;;12.93;9.85;;;1.70;99.90;;;;;;5071710;28;20492;-83
2023/01/28 06:12:12;;;;;;;13.00;10.38;;;1.80;99.90;;;;;;5072765;28;20054;-82
2023/01/28 06:14:38;;;;;;;14.70;9.80;;;3.50;99.90;;;;;;5076349;28;20097;-83
2023/01/28 06:17:04;;;;;;;13.50;10.10;;;2.80;99.90;;;;;;5043332;28;20040;-82
2023/01/28 06:19:29;;;;;;;14.30;9.68;;;1.80;99.90;;;;;;5075395;28;20392;-82
2023/01/28 06:21:55;;;;;;;13.35;10.52;;;3.20;99.90;;;;;;5059517;28;20084;-82
2023/01/28 06:24:21;;;;;;;13.88;10.30;;;1.80;99.90;;;;;;5060007;28;20040;-82
2023/01/28 06:26:47;;;;;;;12.60;9.90;;;1.80;99.90;;;;;;5075987;28;20044;-83
2023/01/28 06:29:13;;;;;;;12.90;9.73;;;2.20;99.90;;;;;;5059507;28;20511;-82
2023/01/28 06:31:38;;;;;;;15.05;10.48;;;1.70;99.90;;;;;;5042006;28;20416;-82
2023/01/28 06:34:04;;;;;;;13.65;9.93;;;2.10;99.90;;;;;;5060969;28;20127;-82
2023/01/28 06:36:30;;;;;;;12.73;9.75;;;2.40;99.90;;;;;;5076343;28;20578;-82
2023/01/28 06:38:56;;;;;;;16.25;10.45;;;3.20;99.90;;;;;;5059317;28;20032;-81
2023/01/28 06:41:22;;;;;;;14.60;10.48;;;1.80;99.90;;;;;;5075629;28;20437;-82
2023/01/28 06:43:47;;;;;;;13.57;9.98;;;2.40;99.90;;;;;;5092742;28;20039;-82
2023/01/28 06:46:13;;;;;;;12.18;9.27;;;3.00;99.90;;;;;;5041953;28;20122;-81
2023/01/28 06:48:39;;;;;;;13.45;9.95;;;3.20;99.90;;;;;;5041363;28;20047;-82
2023/01/28 06:51:05;;;;;;;13.93;10.25;;;1.80;99.90;;;;;;5045261;28;20036;-82
2023/01/28 06:53:30;;;;;;;12.50;10.07;;;3.10;99.90;;;;;;5087780;28;20032;-82
2023/01/28 06:55:56;;;;;;;13.65;10.43;;;3.00;99.90;;;;;;5070560;28;20032;-81
2023/01/28 06:58:22;;;;;;;16.02;9.75;;;2.20;99.90;;;;;;5068001;28;20563;-82
2023/01/28 07:00:47;;;;;;;14.20;11.20;;;1.80;99.90;;;;;;5062017;28;20048;-82
2023/01/28 07:03:13;;;;;;;13.95;10.25;;;3.00;99.90;;;;;;5076093;28;20421;-82
2023/01/28 07:05:39;;;;;;;14.13;10.38;;;3.10;99.90;;;;;;5077148;28;20537;-84
2023/01/28 07:08:05;;;;;;;13.73;9.98;;;1.80;99.90;;;;;;5058308;28;20396;-82
2023/01/28 07:10:30;;;;;;;12.50;9.60;;;2.60;99.90;;;;;;5071230;28;20051;-82
2023/01/28 07:12:56;;;;;;;15.05;10.75;;;1.80;99.90;;;;;;5086606;28;20390;-82
2023/01/28 07:15:22;;;;;;;13.10;10.13;;;3.00;99.90;;;;;;5065797;28;20036;-84
2023/01/28 07:17:48;;;;;;;12.80;9.85;;;2.60;99.90;;;;;;5060774;28;20076;-83
2023/01/28 07:20:14;;;;;;;15.48;11.02;;;2.70;99.90;;;;;;5043481;28;20062;-82
2023/01/28 07:22:41;;;;;;;13.68;10.45;;;1.70;99.90;;;;;;5075535;28;20046;-84
2023/01/28 07:25:08;;;;;;;13.13;10.20;;;1.80;99.90;;;;;;5054420;28;20895;-82
2023/01/28 07:27:34;;;;;;;14.90;10.27;;;1.80;99.90;;;;;;5044589;28;20193;-84
2023/01/28 07:29:59;;;;;;;13.18;9.75;;;3.10;99.90;;;;;;5062045;28;20066;-85
2023/01/28 07:32:26;;;;;;;14.38;10.48;;;2.30;99.90;;;;;;5044399;28;20088;-87
2023/01/28 07:34:52;;;;;;;12.68;8.88;;;2.30;99.90;;;;;;5083836;28;20150;-85
2023/01/28 07:37:19;;;;;;;13.68;9.75;;;3.70;99.90;;;;;;5085574;28;20071;-83
2023/01/28 07:39:44;;;;;;;14.20;10.35;;;1.80;99.90;;;;;;5087231;28;20044;-84
2023/01/28 07:42:10;;;;;;;13.23;9.82;;;1.70;99.90;;;;;;5057858;28;20047;-85
2023/01/28 07:44:36;;;;;;;13.48;9.63;;;3.60;99.90;;;;;;5079404;28;20391;-83
2023/01/28 07:47:03;;;;;;;14.38;10.35;;;3.40;99.90;;;;;;5078995;28;20130;-82
2023/01/28 07:49:29;;;;;;;13.80;9.75;;;2.30;99.90;;;;;;5098319;28;20054;-83
2023/01/28 07:51:55;;;;;;;12.80;10.27;;;1.60;99.90;;;;;;5059684;28;20096;-83
2023/01/28 07:54:20;;;;;;;14.73;10.40;;;1.90;99.90;;;;;;5077873;28;20427;-83
2023/01/28 07:56:46;;;;;;;13.55;10.02;;;2.60;99.90;;;;;;5061501;28;20051;-82
2023/01/28 07:59:12;;;;;;;12.43;9.52;;;3.20;99.90;;;;;;5077685;28;20083;-83
2023/01/28 08:01:38;;;;;;;14.27;10.23;;;1.60;99.90;;;;;;5042080;28;20135;-82
2023/01/28 08:04:04;;;;;;;13.23;9.90;;;2.10;99.90;;;;;;5076976;28;20134;-84
2023/01/28 08:06:30;;;;;;;12.07;9.73;;;1.60;99.90;;;;;;5076909;28;20047;-83
2023/01/28 08:08:55;;;;;;;13.70;9.45;;;3.00;99.90;;;;;;5058603;28;20126;-84
2023/01/28 08:11:22;;;;;;;14.15;10.32;;;1.70;99.90;;;;;;5057909;28;20143;-83
2023/01/28 08:13:48;;;;;;;13.73;10.85;;;2.20;99.90;;;;;;5071092;28;20556;-83
2023/01/28 08:16:14;;;;;;;13.60;10.02;;;3.00;99.90;;;;;;5055229;28;20038;-84
2023/01/28 08:18:40;;;;;;;13.55;9.98;;;1.50;99.90;;;;;;5091007;28;20154;-84
2023/01/28 08:21:06;;;;;;;14.15;10.30;;;3.40;99.90;;;;;;5092261;28;20044;-83
2023/01/28 08:23:33;;;;;;;13.85;10.38;;;1.40;99.90;;;;;;5058349;28;20071;-84
2023/01/28 08:25:59;;;;;;;12.77;9.73;;;2.50;99.90;;;;;;5076123;28;20104;-83
2023/01/28 08:28:25;;;;;;;14.02;10.25;;;1.30;99.90;;;;;;5077222;28;20039;-85
2023/01/28 08:30:52;;;;;;;14.15;9.88;;;1.30;99.90;;;;;;5075653;28;20036;-86
2023/01/28 08:33:18;;;;;;;14.88;10.35;;;2.00;99.90;;;;;;5060964;28;20060;-85
2023/01/28 08:35:45;;;;;;;14.13;10.52;;;2.30;99.90;;;;;;5076222;28;20031;-85
2023/01/28 08:38:16;;;;;;;15.55;10.90;;;2.90;99.90;;;;;;5081575;28;20043;-85
2023/01/28 08:40:42;;;;;;;16.95;11.70;;;1.40;99.90;;;;;;5069371;28;20040;-85
2023/01/28 08:43:08;;;;;;;17.77;11.48;;;3.00;99.90;;;;;;5092601;28;20077;-85
2023/01/28 08:45:34;;;;;;;15.75;11.45;;;1.60;99.90;;;;;;5069056;28;20040;-86
2023/01/28 08:48:02;;;;;;;16.80;11.32;;;1.60;99.90;;;;;;5060429;28;20063;-85
2023/01/28 08:50:31;;;;;;;13.73;10.65;;;2.50;99.90;;;;;;5075586;28;20044;-85
2023/01/28 08:53:11;;;;;;;14.20;10.55;;;3.00;99.90;;;;;;5073880;28;20043;-86
2023/01/28 08:55:37;;;;;;;14.18;10.63;;;1.90;99.90;;;;;;5075284;28;20040;-83
2023/01/28 08:58:05;;;;;;;13.38;10.32;;;2.80;99.90;;;;;;5058838;28;20035;-85
2023/01/28 09:00:33;;;;;;;17.13;11.50;;;2.00;99.90;;;;;;5074008;28;20075;-85
2023/01/28 09:02:59;;;;;;;14.25;10.52;;;3.70;99.90;;;;;;5084814;28;20395;-85
2023/01/28 09:05:24;;;;;;;17.60;11.95;;;2.00;99.90;;;;;;5075135;28;20040;-86
2023/01/28 09:07:50;;;;;;;15.55;11.10;;;0.90;99.90;;;;;;5059611;28;20035;-86
2023/01/28 09:10:19;;;;;;;16.33;11.32;;;2.80;99.90;;;;;;5058997;28;20071;-86
2023/01/28 09:12:45;;;;;;;19.23;11.50;;;1.90;99.90;;;;;;5075542;28;20379;-85
2023/01/28 09:15:11;;;;;;;15.07;11.02;;;2.70;99.90;;;;;;5073825;28;20044;-85
2023/01/28 09:17:37;;;;;;;16.83;11.32;;;1.90;99.90;;;;;;5074800;28;20093;-84
2023/01/28 09:20:04;;;;;;;16.65;12.23;;;2.00;99.90;;;;;;5092085;28;20097;-84
2023/01/28 09:22:31;;;;;;;20.00;13.13;;;2.10;99.90;;;;;;5074955;28;20047;-85
2023/01/28 09:24:57;;;;;;;19.35;12.75;;;2.20;99.90;;;;;;5075554;28;20048;-84
2023/01/28 09:27:23;;;;;;;17.85;13.15;;;3.90;99.90;;;;;;5074794;28;20372;-84
2023/01/28 09:29:48;;;;;;;17.00;12.15;;;4.20;99.90;;;;;;5074954;28;20434;-84
2023/01/28 09:32:14;;;;;;;14.88;10.98;;;3.90;99.90;;;;;;5074094;28;20415;-84
2023/01/28 09:34:40;;;;;;;13.13;10.43;;;3.10;99.90;;;;;;5059054;28;20036;-83
2023/01/28 09:37:05;;;;;;;14.77;10.52;;;5.10;99.90;;;;;;5058804;28;20083;-85
2023/01/28 09:39:31;;;;;;;15.02;10.50;;;3.80;99.90;;;;;;5075177;28;20043;-85
2023/01/28 09:42:19;;;;;;;13.50;9.35;;;4.60;99.90;;;;;;5057826;28;20123;-84
2023/01/28 09:45:01;;;;;;;15.75;10.05;;;3.70;99.90;;;;;;5073326;28;20071;-83
2023/01/28 09:47:31;;;;;;;13.18;9.60;;;3.50;99.90;;;;;;5093560;28;20488;-84
2023/01/28 09:50:00;;;;;;;12.98;9.77;;;3.70;99.90;;;;;;5096220;28;20120;-84
2023/01/28 09:52:29;;;;;;;13.98;10.48;;;3.30;99.90;;;;;;5096083;28;20134;-84
2023/01/28 09:55:01;;;;;;;15.80;10.70;;;3.30;99.90;;;;;;5080201;28;20044;-84
2023/01/28 09:57:38;;;;;;;13.45;10.77;;;3.40;99.90;;;;;;5080551;28;20036;-83
2023/01/28 10:00:16;;;;;;;15.30;10.70;;;3.50;99.90;;;;;;5095184;28;20479;-84
2023/01/28 10:03:09;;;;;;;13.55;10.55;;;3.50;99.90;;;;;;5101914;28;20048;-84
2023/01/28 10:05:47;;;;;;;16.77;10.45;;;3.60;99.90;;;;;;5078607;28;20089;-86
2023/01/28 10:08:26;;;;;;;16.30;10.75;;;4.50;99.90;;;;;;5077363;28;20086;-85
2023/01/28 10:11:12;;;;;;;13.95;10.80;;;5.30;99.90;;;;;;5077954;28;20044;-84
2023/01/28 10:14:12;;;;;;;13.18;10.68;;;6.20;99.90;;;;;;5083463;28;20551;-84
2023/01/28 10:16:43;;;;;;;13.57;10.75;;;7.10;99.90;;;;;;5078633;28;20043;-84
2023/01/28 10:19:26;;;;;;;10.95;9.73;;;8.00;99.90;;;;;;5095140;28;20040;-85
2023/01/28 10:22:03;;;;;;;12.57;9.98;;;8.90;99.90;;;;;;5070597;28;20051;-85
2023/01/28 10:24:40;;;;;;;11.02;9.60;;;9.50;99.90;;;;;;5077848;28;20472;-85
2023/01/28 10:27:18;;;;;;;11.98;9.43;;;9.90;99.90;;;;;;5069416;28;20036;-85
2023/01/28 10:29:46;;;;;;;11.63;9.05;;;10.30;97.90;;;;;;5078370;28;20365;-84
2023/01/28 10:32:28;;;;;;;10.38;9.35;;;10.80;99.20;;;;;;5077655;28;20059;-85
2023/01/28 10:34:54;;;;;;;9.10;7.95;;;11.10;94.00;;;;;;5094604;28;20036;-84
2023/01/28 10:37:20;;;;;;;10.18;7.88;;;11.50;97.30;;;;;;5045049;28;20040;-84
2023/01/28 10:39:46;;;;;;;9.45;7.35;;;11.90;96.50;;;;;;5087225;28;20036;-85
2023/01/28 10:42:29;;;;;;;8.10;7.30;;;11.80;94.10;;;;;;5080284;28;20200;-86
2023/01/28 10:45:22;;;;;;;9.20;8.07;;;11.70;90.20;;;;;;5076789;28;20161;-81
2023/01/28 10:48:07;;;;;;;8.82;7.40;;;11.70;91.30;;;;;;5092477;28;20040;-83
2023/01/28 10:50:34;;;;;;;15.80;8.00;;;10.60;91.80;;;;;;5110253;27;20048;-83
2023/01/28 10:53:04;;;;;;;9.95;8.10;;;9.70;94.90;;;;;;5089687;28;20039;-84
2023/01/28 10:55:51;;;;;;;9.43;7.93;;;8.70;96.30;;;;;;5081780;28;20144;-82
2023/01/28 10:58:26;;;;;;;9.60;7.97;;;8.00;97.40;;;;;;5086618;28;20956;-84
2023/01/28 11:01:05;;;;;;;10.75;8.80;;;7.40;99.10;;;;;;5088407;28;20048;-84
2023/01/28 11:03:33;;;;;;;9.68;8.02;;;7.30;99.90;;;;;;5078279;28;20128;-84
2023/01/28 11:05:59;;;;;;;9.05;8.05;;;7.70;99.90;;;;;;5077599;28;20388;-85
2023/01/28 11:08:28;;;;;;;11.27;7.90;;;7.60;99.90;;;;;;5057201;28;20047;-85
2023/01/28 11:10:55;;;;;;;10.73;8.32;;;7.20;99.90;;;;;;5086775;28;20048;-84
2023/01/28 11:13:26;;;;;;;9.50;7.38;;;6.90;99.90;;;;;;5086136;28;20054;-84
2023/01/28 11:16:12;;;;;;;9.25;7.38;;;6.60;99.90;;;;;;5088198;28;20095;-83
2023/01/28 11:18:45;;;;;;;9.73;8.07;;;6.50;99.90;;;;;;5082957;28;20046;-84
2023/01/28 11:21:20;;;;;;;9.30;7.50;;;6.60;99.90;;;;;;5077438;28;20044;-83
2023/01/28 11:24:18;;;;;;;10.10;7.75;;;6.90;99.90;;;;;;5077852;28;20456;-84
2023/01/28 11:26:49;;;;;;;10.40;8.10;;;7.50;99.90;;;;;;5084807;28;20067;-84
2023/01/28 11:29:38;;;;;;;11.70;8.00;;;7.50;99.90;;;;;;5099283;28;20158;-84
2023/01/28 11:32:06;;;;;;;9.77;8.50;;;7.30;99.90;;;;;;5076541;28;20043;-84
2023/01/28 11:34:33;;;;;;;10.70;8.40;;;7.10;99.90;;;;;;5075846;28;20648;-84
2023/01/28 11:37:21;;;;;;;16.05;9.00;;;7.20;99.90;;;;;;5081859;28;20032;-84
2023/01/28 11:39:47;;;;;;;10.25;7.90;;;7.90;99.90;;;;;;5061269;28;20040;-84
2023/01/28 11:42:17;;;;;;;10.63;8.25;;;8.20;99.90;;;;;;5096942;28;20384;-85
2023/01/28 11:44:44;;;;;;;12.90;8.57;;;8.60;99.90;;;;;;5074813;28;20127;-82
2023/01/28 11:47:31;;;;;;;8.88;7.30;;;8.60;99.90;;;;;;5075734;28;20126;-83
2023/01/28 11:50:18;;;;;;;10.75;7.07;;;8.90;99.90;;;;;;5076289;28;20156;-83
2023/01/28 11:53:15;;;;;;;9.95;6.88;;;8.90;99.90;;;;;;5086185;28;20040;-84
2023/01/28 11:56:11;;;;;;;10.30;7.17;;;9.30;99.90;;;;;;5079044;28;20086;-84
2023/01/28 11:59:00;;;;;;;8.40;6.97;;;9.70;99.80;;;;;;5073480;28;20122;-84
2023/01/28 12:01:29;;;;;;;8.60;6.95;;;10.10;99.40;;;;;;5075211;28;20040;-84
2023/01/28 12:04:28;;;;;;;8.07;6.45;;;10.60;99.60;;;;;;5074750;28;20051;-84
2023/01/28 12:07:11;;;;;;;11.50;7.05;;;10.90;95.90;;;;;;5074152;28;20036;-84
2023/01/28 12:10:07;;;;;;;8.75;7.28;;;11.20;96.90;;;;;;5073765;28;20040;-84
2023/01/28 12:13:02;;;;;;;8.27;6.40;;;11.00;97.30;;;;;;5090040;28;20048;-84
2023/01/28 12:15:32;;;;;;;7.82;5.97;;;11.30;96.30;;;;;;5066848;28;20032;-84
2023/01/28 12:18:27;;;;;;;7.65;5.78;;;11.40;97.30;;;;;;5083767;28;20020;-84
2023/01/28 12:21:14;;;;;;;7.90;6.10;;;11.60;96.90;;;;;;5086876;28;20054;-83
2023/01/28 12:24:05;;;;;;;9.50;6.03;;;11.50;94.80;;;;;;5101439;28;20039;-84
2023/01/28 12:26:50;;;;;;;7.55;6.72;;;11.10;95.70;;;;;;5076758;28;20031;-84
2023/01/28 12:29:46;;;;;;;10.75;6.70;;;10.50;96.30;;;;;;5074504;28;20671;-84
2023/01/28 12:32:27;;;;;;;8.25;6.78;;;9.60;96.10;;;;;;5071955;28;20486;-84
2023/01/28 12:35:06;;;;;;;8.18;7.15;;;9.00;98.30;;;;;;5074909;28;20036;-84
2023/01/28 12:37:59;;;;;;;8.60;6.90;;;8.60;99.40;;;;;;5074052;28;20039;-83
2023/01/28 12:40:48;;;;;;;9.95;7.88;;;8.50;99.90;;;;;;5074873;28;20116;-82
2023/01/28 12:43:42;;;;;;;11.60;7.80;;;8.20;99.90;;;;;;5075060;28;20059;-83
2023/01/28 12:46:32;;;;;;;8.45;6.70;;;7.80;99.90;;;;;;5074421;28;20044;-83
2023/01/28 12:49:09;;;;;;;9.82;7.00;;;7.60;99.90;;;;;;5074105;28;20036;-83
2023/01/28 12:52:04;;;;;;;8.25;6.63;;;7.30;99.90;;;;;;5074034;28;20093;-83
2023/01/28 12:54:35;;;;;;;9.65;7.38;;;7.30;99.90;;;;;;5072466;28;20344;-83
2023/01/28 12:57:02;;;;;;;9.10;7.32;;;6.90;99.90;;;;;;5074601;28;20544;-83
2023/01/28 12:59:44;;;;;;;10.32;7.53;;;6.80;99.90;;;;;;5091179;28;20404;-83
2023/01/28 13:02:12;;;;;;;11.18;6.95;;;7.00;99.90;;;;;;5090512;28;20078;-83
2023/01/28 13:05:03;;;;;;;12.00;8.05;;;6.60;99.90;;;;;;5078146;28;20040;-83
2023/01/28 13:07:42;;;;;;;12.02;7.35;;;6.40;99.90;;;;;;5072012;28;20114;-83
2023/01/28 13:10:21;;;;;;;14.10;8.82;;;6.40;99.90;;;;;;5088585;28;20074;-83
2023/01/28 13:12:47;;;;;;;15.18;9.73;;;6.60;99.90;;;;;;5074337;28;20051;-83
2023/01/28 13:15:17;;;;;;;15.23;9.10;;;7.00;99.90;;;;;;5074080;28;20058;-84
2023/01/28 13:18:00;;;;;;;14.73;8.88;;;7.30;99.90;;;;;;5074261;28;20511;-83
2023/01/28 13:20:50;;;;;;;13.00;8.80;;;7.60;99.90;;;;;;5073753;28;20079;-83
2023/01/28 13:23:38;;;;;;;12.43;8.57;;;7.80;99.90;;;;;;5072469;28;20504;-83
2023/01/28 13:26:49;;;;;;;13.93;9.18;;;7.90;99.90;;;;;;5084255;28;20057;-84
2023/01/28 13:29:17;;;;;;;11.13;7.65;;;8.10;99.90;;;;;;5084221;28;20036;-85
2023/01/28 13:31:54;;;;;;;9.73;6.95;;;8.20;99.90;;;;;;5091359;28;20043;-82
2023/01/28 13:34:31;;;;;;;12.05;7.88;;;8.30;99.90;;;;;;5083163;28;20052;-83
2023/01/28 13:37:17;;;;;;;12.45;7.50;;;8.70;99.90;;;;;;5092741;28;20040;-84
2023/01/28 13:39:48;;;;;;;9.73;6.75;;;8.30;99.90;;;;;;5077239;28;20044;-83